Time;durP1;ratioP1;P1;durP2;ratioP2;P2;SDS_P1;SDS_P2;PMS_P1;PMS_P2;Temp;Humidity;BMP_temperature;BMP_pressure;BME280_temperature;BME280_humidity;BME280_pressure;Samples;Min_cycle;Max_cycle;Signal;HPM_P1;HPM_P2
2021/03/21 00:00:32;;;;;;;35.22;21.15;;;52.10;2048.00;;;;;;4822438;29;20045;-72
2021/03/21 00:02:58;;;;;;;33.33;20.08;;;52.00;2022.40;;;;;;4821311;29;20030;-72
2021/03/21 00:05:25;;;;;;;32.15;19.35;;;52.00;2022.40;;;;;;4822196;29;20427;-75
2021/03/21 00:07:59;;;;;;;34.75;20.05;;;52.00;2022.40;;;;;;4847239;29;20106;-73
2021/03/21 00:10:26;;;;;;;28.88;18.45;;;51.90;2022.40;;;;;;4825088;29;20038;-73
2021/03/21 00:12:53;;;;;;;31.30;20.63;;;51.90;2022.40;;;;;;4821484;29;20054;-73
2021/03/21 00:15:20;;;;;;;34.92;21.55;;;51.90;2048.00;;;;;;4833981;29;20503;-73
2021/03/21 00:17:46;;;;;;;28.70;20.33;;;51.80;2048.00;;;;;;4830786;29;20037;-72
2021/03/21 00:20:14;;;;;;;34.03;19.63;;;51.70;2022.40;;;;;;4833432;29;20499;-72
2021/03/21 00:22:40;;;;;;;30.38;18.85;;;51.70;2073.60;;;;;;4820494;29;20042;-72
2021/03/21 00:25:09;;;;;;;30.65;19.45;;;51.60;2073.60;;;;;;4833144;29;20026;-72
2021/03/21 00:27:35;;;;;;;33.47;20.25;;;51.50;2073.60;;;;;;4822665;29;20109;-72
2021/03/21 00:30:04;;;;;;;30.02;18.23;;;51.50;2073.60;;;;;;4833012;29;20117;-73
2021/03/21 00:32:30;;;;;;;29.38;19.20;;;51.40;2073.60;;;;;;4836533;29;20078;-73
2021/03/21 00:34:56;;;;;;;30.20;19.88;;;51.40;2073.60;;;;;;4832842;29;20035;-73
2021/03/21 00:37:21;;;;;;;28.27;19.08;;;51.40;2073.60;;;;;;4820930;29;20530;-72
2021/03/21 00:39:47;;;;;;;28.33;19.55;;;51.30;2073.60;;;;;;4814081;29;20053;-72
2021/03/21 00:42:13;;;;;;;27.67;19.42;;;51.30;2073.60;;;;;;4835124;29;20615;-72
2021/03/21 00:44:38;;;;;;;29.40;19.40;;;51.30;2073.60;;;;;;4819563;29;20117;-72
2021/03/21 00:47:05;;;;;;;27.67;19.38;;;51.20;2073.60;;;;;;4836003;29;20480;-72
2021/03/21 00:49:30;;;;;;;27.58;17.77;;;51.20;2099.20;;;;;;4820490;29;20026;-72
2021/03/21 00:51:56;;;;;;;30.08;19.23;;;51.20;2099.20;;;;;;4820974;29;20514;-72
2021/03/21 00:54:22;;;;;;;29.60;18.23;;;26.50;2073.60;;;;;;4834216;29;20109;-73
2021/03/21 00:56:48;;;;;;;30.35;18.77;;;51.20;2099.20;;;;;;4835283;29;20033;-72
2021/03/21 00:59:13;;;;;;;30.05;18.50;;;51.20;2099.20;;;;;;4832572;29;20109;-71
2021/03/21 01:01:39;;;;;;;30.10;18.02;;;51.20;2099.20;;;;;;4816793;29;20550;-72
2021/03/21 01:04:05;;;;;;;28.67;19.33;;;51.20;2099.20;;;;;;4822123;29;20026;-72
2021/03/21 01:06:32;;;;;;;28.38;18.40;;;51.20;2099.20;;;;;;4833371;29;20094;-73
2021/03/21 01:09:01;;;;;;;30.50;19.27;;;51.20;2099.20;;;;;;4819647;29;20034;-72
2021/03/21 01:11:30;;;;;;;30.58;20.38;;;51.20;2099.20;;;;;;4833314;29;20455;-73
2021/03/21 01:13:57;;;;;;;32.55;20.23;;;51.20;2099.20;;;;;;4819857;29;20428;-72
2021/03/21 01:16:29;;;;;;;34.72;20.58;;;51.30;2124.80;;;;;;4814019;29;20506;-72
2021/03/21 01:18:56;;;;;;;30.05;20.10;;;51.30;2124.80;;;;;;4816686;29;20030;-72
2021/03/21 01:21:23;;;;;;;32.13;20.38;;;51.40;2124.80;;;;;;4818073;29;20415;-72
2021/03/21 01:23:49;;;;;;;31.25;20.20;;;51.40;2099.20;;;;;;4834912;29;20040;-73
2021/03/21 01:26:18;;;;;;;33.63;20.67;;;51.40;2073.60;;;;;;4831813;29;20026;-72
2021/03/21 01:28:44;;;;;;;33.58;19.45;;;51.40;2073.60;;;;;;4834866;29;20030;-72
2021/03/21 01:31:14;;;;;;;30.73;20.48;;;51.40;2073.60;;;;;;4817092;29;20045;-72
2021/03/21 01:33:40;;;;;;;29.00;19.30;;;51.50;2073.60;;;;;;4836740;29;20101;-72
2021/03/21 01:36:12;;;;;;;30.58;18.38;;;51.50;2073.60;;;;;;4810524;29;20043;-72
2021/03/21 01:38:38;;;;;;;33.83;20.95;;;51.40;2073.60;;;;;;4822784;29;20026;-72
2021/03/21 01:41:06;;;;;;;32.58;19.67;;;51.40;2073.60;;;;;;4830058;29;20376;-72
2021/03/21 01:43:38;;;;;;;30.48;19.30;;;51.30;2073.60;;;;;;4846781;29;20436;-72
2021/03/21 01:46:05;;;;;;;30.65;18.67;;;51.20;2099.20;;;;;;4858908;29;20033;-72
2021/03/21 01:48:46;;;;;;;32.45;19.05;;;51.20;2124.80;;;;;;4849379;29;20022;-72
2021/03/21 01:51:16;;;;;;;28.50;19.50;;;26.50;2124.80;;;;;;4825953;29;20047;-73
2021/03/21 01:53:44;;;;;;;22.65;17.48;;;26.30;2124.80;;;;;;4849593;29;20102;-72
2021/03/21 01:56:11;;;;;;;28.85;18.52;;;26.20;2124.80;;;;;;4839157;29;20110;-72
2021/03/21 01:58:38;;;;;;;32.50;20.02;;;26.20;2150.40;;;;;;4829407;29;20533;-72
2021/03/21 02:01:12;;;;;;;33.78;20.50;;;26.10;2150.40;;;;;;4852525;29;20030;-72
2021/03/21 02:03:38;;;;;;;29.02;18.58;;;26.10;2150.40;;;;;;4845653;29;20100;-73
2021/03/21 02:06:25;;;;;;;27.65;18.80;;;26.10;2150.40;;;;;;4843995;29;20476;-72
2021/03/21 02:09:01;;;;;;;30.33;18.52;;;26.00;2150.40;;;;;;4831565;29;20526;-72
2021/03/21 02:11:45;;;;;;;35.33;20.02;;;26.00;2124.80;;;;;;4843015;29;20034;-74
2021/03/21 02:14:24;;;;;;;29.73;19.23;;;26.10;2150.40;;;;;;4829146;29;20038;-73
2021/03/21 02:17:06;;;;;;;29.08;17.63;;;25.90;2150.40;;;;;;4827414;29;20070;-73
2021/03/21 02:20:10;;;;;;;25.20;18.33;;;26.00;2150.40;;;;;;4827104;29;20048;-73
2021/03/21 02:22:46;;;;;;;28.48;18.55;;;25.90;2176.00;;;;;;4816634;29;20033;-73
2021/03/21 02:25:25;;;;;;;25.27;16.70;;;26.00;2150.40;;;;;;4841301;29;20038;-73
2021/03/21 02:28:06;;;;;;;32.85;20.23;;;26.00;2099.20;;;;;;4862613;29;20040;-73
2021/03/21 02:30:43;;;;;;;26.45;17.38;;;26.00;2124.80;;;;;;4845500;29;20441;-73
2021/03/21 02:33:35;;;;;;;27.75;19.10;;;25.90;2124.80;;;;;;4843589;29;20025;-73
2021/03/21 02:36:23;;;;;;;26.75;18.33;;;25.80;2124.80;;;;;;4825554;29;20535;-73
2021/03/21 02:39:10;;;;;;;28.30;18.05;;;25.80;2150.40;;;;;;4824641;29;20410;-74
2021/03/21 02:41:43;;;;;;;29.52;17.30;;;25.70;2150.40;;;;;;4826705;29;20058;-74
2021/03/21 02:44:26;;;;;;;29.67;18.65;;;25.70;2150.40;;;;;;4825412;29;20114;-73
2021/03/21 02:46:57;;;;;;;31.08;19.55;;;25.60;2150.40;;;;;;4843535;29;20033;-73
2021/03/21 02:49:29;;;;;;;31.40;19.95;;;0.90;2176.00;;;;;;4852891;29;20026;-73
2021/03/21 02:52:00;;;;;;;28.10;19.00;;;0.90;2150.40;;;;;;4850156;29;20033;-73
2021/03/21 02:54:28;;;;;;;34.78;22.33;;;0.90;2176.00;;;;;;4826864;29;20483;-74
2021/03/21 02:57:03;;;;;;;33.72;21.58;;;0.80;2176.00;;;;;;4842951;29;20022;-73
2021/03/21 02:59:34;;;;;;;37.45;20.88;;;0.80;2176.00;;;;;;4843284;29;20514;-73
2021/03/21 03:02:24;;;;;;;33.92;21.80;;;0.70;2176.00;;;;;;4826509;29;20098;-74
2021/03/21 03:05:00;;;;;;;28.45;19.65;;;0.70;2201.60;;;;;;4843030;29;20411;-73
2021/03/21 03:07:36;;;;;;;33.30;20.58;;;0.70;2176.00;;;;;;4843355;29;20010;-74
2021/03/21 03:10:08;;;;;;;;;;;0.70;2176.00;;;;;;4826816;29;20038;-73
2021/03/21 03:12:46;;;;;;;34.45;18.48;;;0.60;2176.00;;;;;;4842412;29;20649;-74
2021/03/21 03:15:16;;;;;;;30.88;18.55;;;0.50;2176.00;;;;;;4826555;29;20098;-73
2021/03/21 03:17:47;;;;;;;31.35;18.15;;;0.50;2201.60;;;;;;4843975;29;20044;-73
2021/03/21 03:20:23;;;;;;;31.85;19.17;;;0.40;2201.60;;;;;;4826605;29;20030;-73
2021/03/21 03:23:07;;;;;;;36.58;20.92;;;0.40;2201.60;;;;;;4838340;29;20030;-73
2021/03/21 03:25:50;;;;;;;31.20;18.92;;;0.40;2201.60;;;;;;4852813;29;20026;-73
2021/03/21 03:28:21;;;;;;;30.75;20.20;;;0.40;2201.60;;;;;;4825805;29;20055;-73
2021/03/21 03:31:09;;;;;;;32.30;19.77;;;0.30;2201.60;;;;;;4842891;29;20030;-72
2021/03/21 03:33:36;;;;;;;30.95;19.92;;;0.40;2201.60;;;;;;4841522;29;20108;-73
2021/03/21 03:36:05;;;;;;;32.92;19.95;;;0.30;2201.60;;;;;;4842311;29;20559;-73
2021/03/21 03:38:31;;;;;;;34.17;20.42;;;0.30;2201.60;;;;;;4842726;29;20033;-73
2021/03/21 03:41:05;;;;;;;32.03;19.45;;;0.30;2201.60;;;;;;4842112;29;20041;-73
2021/03/21 03:43:45;;;;;;;27.95;17.35;;;0.20;2201.60;;;;;;4844554;29;20112;-73
2021/03/21 03:46:19;;;;;;;30.58;19.35;;;0.20;2201.60;;;;;;4833972;29;20037;-73
2021/03/21 03:48:58;;;;;;;30.65;18.92;;;0.20;2201.60;;;;;;4841881;29;20086;-73
2021/03/21 03:51:45;;;;;;;30.17;20.05;;;0.10;2201.60;;;;;;4842294;29;20094;-73
2021/03/21 03:54:28;;;;;;;29.95;19.70;;;0.20;2201.60;;;;;;4834996;29;20037;-73
2021/03/21 03:57:15;;;;;;;31.00;18.40;;;0.10;2201.60;;;;;;4841857;29;20474;-73
2021/03/21 03:59:43;;;;;;;32.88;18.20;;;0.20;2201.60;;;;;;4841976;29;20112;-73
2021/03/21 04:02:12;;;;;;;30.67;18.35;;;0.10;2201.60;;;;;;4826009;29;20034;-73
2021/03/21 04:05:15;;;;;;;33.97;19.88;;;0.10;2201.60;;;;;;4841804;29;20029;-73
2021/03/21 04:08:04;;;;;;;31.35;18.67;;;0.10;2201.60;;;;;;4785173;29;20044;-72
2021/03/21 04:10:41;;;;;;;31.70;19.13;;;0.10;2201.60;;;;;;4785744;29;20077;-73
2021/03/21 04:13:31;;;;;;;33.38;21.92;;;0.10;2201.60;;;;;;4774274;30;20505;-73
2021/03/21 04:15:58;;;;;;;35.45;19.80;;;0.00;2201.60;;;;;;4786072;29;20035;-73
2021/03/21 04:18:27;;;;;;;33.88;19.65;;;0.10;2201.60;;;;;;4785619;30;20618;-73
2021/03/21 04:21:26;;;;;;;36.75;20.20;;;0.00;2201.60;;;;;;4769844;30;20129;-73
2021/03/21 04:24:11;;;;;;;33.95;19.95;;;0.00;2201.60;;;;;;4771424;30;20130;-73
2021/03/21 04:26:43;;;;;;;32.90;21.65;;;0.10;2201.60;;;;;;4778015;29;20035;-73
2021/03/21 04:29:20;;;;;;;33.50;20.63;;;0.00;2201.60;;;;;;4789927;29;20031;-73
2021/03/21 04:31:48;;;;;;;37.03;21.77;;;0.10;2201.60;;;;;;4768255;29;20191;-73
2021/03/21 04:34:17;;;;;;;41.20;22.08;;;0.00;2201.60;;;;;;4803689;29;20031;-72
2021/03/21 04:36:46;;;;;;;43.28;23.33;;;0.00;2201.60;;;;;;4778925;30;20028;-72
2021/03/21 04:39:24;;;;;;;37.88;22.65;;;0.00;2201.60;;;;;;4783610;29;20114;-73
2021/03/21 04:42:10;;;;;;;35.17;20.55;;;12.90;2201.60;;;;;;4785214;29;20039;-73
2021/03/21 04:44:55;;;;;;;38.25;23.17;;;12.90;2201.60;;;;;;4838548;29;20034;-73
2021/03/21 04:47:34;;;;;;;36.80;21.67;;;12.90;2201.60;;;;;;4842952;29;20204;-73
2021/03/21 04:50:00;;;;;;;37.28;23.85;;;13.00;2201.60;;;;;;4846691;29;20032;-73
2021/03/21 04:52:47;;;;;;;37.42;21.58;;;13.00;2201.60;;;;;;4859618;29;20025;-72
2021/03/21 04:55:37;;;;;;;36.25;20.42;;;13.00;2201.60;;;;;;4859944;29;20026;-73
2021/03/21 04:58:07;;;;;;;43.08;23.20;;;13.00;2201.60;;;;;;4820758;29;20038;-73
2021/03/21 05:00:37;;;;;;;43.28;21.95;;;13.00;2201.60;;;;;;4835723;29;20483;-73
2021/03/21 05:03:11;;;;;;;35.35;21.42;;;13.00;2201.60;;;;;;4855050;29;20026;-73
2021/03/21 05:05:42;;;;;;;36.45;22.00;;;13.00;2201.60;;;;;;4839696;29;20105;-73
2021/03/21 05:08:15;;;;;;;38.20;21.33;;;12.90;2201.60;;;;;;4845212;29;20113;-73
2021/03/21 05:10:45;;;;;;;40.00;22.92;;;13.00;2201.60;;;;;;4844643;29;20498;-74
2021/03/21 05:13:18;;;;;;;38.30;21.73;;;12.90;2201.60;;;;;;4861884;29;20058;-72
2021/03/21 05:16:03;;;;;;;40.15;22.38;;;12.90;2201.60;;;;;;4827591;29;20507;-72
2021/03/21 05:18:41;;;;;;;37.85;21.27;;;12.90;2201.60;;;;;;4854369;29;20041;-72
2021/03/21 05:21:18;;;;;;;39.42;22.83;;;0.00;2201.60;;;;;;4835523;29;20034;-72
2021/03/21 05:24:14;;;;;;;46.03;25.83;;;0.00;2201.60;;;;;;4841690;29;20028;-73
2021/03/21 05:26:53;;;;;;;33.58;19.77;;;0.00;2201.60;;;;;;4847169;29;20025;-73
2021/03/21 05:29:36;;;;;;;38.45;23.83;;;0.00;2201.60;;;;;;4858457;29;20105;-72
2021/03/21 05:32:04;;;;;;;37.38;22.50;;;0.10;2201.60;;;;;;4859571;29;20034;-73
2021/03/21 05:34:31;;;;;;;40.17;22.65;;;0.10;2201.60;;;;;;4846135;29;20053;-72
2021/03/21 05:37:06;;;;;;;40.78;24.50;;;0.10;2201.60;;;;;;4848625;29;20104;-72
2021/03/21 05:40:03;;;;;;;34.88;22.23;;;0.10;2201.60;;;;;;4840481;29;20111;-72
2021/03/21 05:42:57;;;;;;;37.38;23.50;;;0.20;2201.60;;;;;;4853406;29;20103;-72
2021/03/21 05:46:04;;;;;;;34.35;22.02;;;0.20;2201.60;;;;;;4840589;29;20037;-71
2021/03/21 05:49:02;;;;;;;34.60;22.25;;;0.40;2201.60;;;;;;4748012;30;20165;-71
2021/03/21 05:51:48;;;;;;;40.63;24.30;;;0.30;2201.60;;;;;;4747429;30;20028;-72
2021/03/21 05:54:41;;;;;;;35.55;21.73;;;0.40;2201.60;;;;;;4748974;30;20534;-72
2021/03/21 05:57:25;;;;;;;33.63;22.30;;;0.50;2201.60;;;;;;4739905;30;20044;-72
2021/03/21 06:00:06;;;;;;;42.90;23.90;;;0.40;2201.60;;;;;;4748445;30;20068;-72
2021/03/21 06:02:46;;;;;;;40.38;22.50;;;0.50;2201.60;;;;;;4746400;30;20104;-72
2021/03/21 06:05:33;;;;;;;46.22;26.58;;;0.50;2201.60;;;;;;4750157;30;20054;-72
2021/03/21 06:07:59;;;;;;;37.22;24.10;;;0.60;2201.60;;;;;;4729544;30;20040;-72
2021/03/21 06:10:43;;;;;;;37.10;23.05;;;0.70;2201.60;;;;;;4748415;30;20081;-72
2021/03/21 06:13:39;;;;;;;41.05;24.23;;;0.80;2176.00;;;;;;4743085;30;20140;-73
2021/03/21 06:16:29;;;;;;;38.17;22.30;;;0.80;2176.00;;;;;;4732591;30;20156;-72
2021/03/21 06:19:23;;;;;;;40.53;23.92;;;0.90;2176.00;;;;;;4740489;30;20048;-73
2021/03/21 06:22:12;;;;;;;39.05;23.15;;;0.90;2150.40;;;;;;4746365;30;20858;-74
2021/03/21 06:25:06;;;;;;;35.17;22.13;;;25.60;2150.40;;;;;;4761378;29;20034;-73
2021/03/21 06:27:56;;;;;;;39.33;23.83;;;25.60;2150.40;;;;;;4831953;29;20041;-73
2021/03/21 06:30:43;;;;;;;38.28;22.20;;;25.60;2150.40;;;;;;4832709;29;20038;-74
2021/03/21 06:33:36;;;;;;;33.08;21.52;;;25.70;2124.80;;;;;;4825347;29;20045;-73
2021/03/21 06:36:30;;;;;;;36.05;22.70;;;25.70;2150.40;;;;;;4836748;29;20174;-73
2021/03/21 06:39:17;;;;;;;41.83;24.85;;;25.80;2124.80;;;;;;4836004;29;20474;-73
2021/03/21 06:42:09;;;;;;;39.17;23.30;;;25.80;2124.80;;;;;;4834458;29;20034;-73
2021/03/21 06:45:12;;;;;;;35.60;21.45;;;26.00;2124.80;;;;;;4834499;29;20117;-73
2021/03/21 06:47:56;;;;;;;32.90;21.60;;;26.10;2099.20;;;;;;4819065;29;20122;-73
2021/03/21 06:50:40;;;;;;;37.30;23.15;;;26.20;2099.20;;;;;;4831317;29;20034;-73
2021/03/21 06:53:28;;;;;;;38.65;21.88;;;26.20;2099.20;;;;;;4816341;29;20062;-73
2021/03/21 06:55:56;;;;;;;39.60;24.20;;;26.30;2099.20;;;;;;4833683;29;20158;-73
2021/03/21 06:58:54;;;;;;;37.95;23.13;;;26.50;2099.20;;;;;;4839930;29;20059;-73
2021/03/21 07:01:29;;;;;;;39.20;24.30;;;51.20;2099.20;;;;;;4751214;30;20044;-73
2021/03/21 07:04:16;;;;;;;38.92;23.90;;;51.30;2099.20;;;;;;4751009;30;20045;-73
2021/03/21 07:06:50;;;;;;;38.10;23.35;;;51.30;2099.20;;;;;;4746549;30;20522;-74
2021/03/21 07:09:22;;;;;;;38.38;23.00;;;51.40;2073.60;;;;;;4749985;30;20024;-74
2021/03/21 07:12:31;;;;;;;33.63;22.73;;;51.40;2048.00;;;;;;4746835;30;20044;-74
2021/03/21 07:15:24;;;;;;;35.10;21.92;;;51.50;2048.00;;;;;;4732659;30;20394;-75
2021/03/21 07:18:29;;;;;;;36.42;20.90;;;51.80;2022.40;;;;;;4747082;30;20108;-74
2021/03/21 07:21:32;;;;;;;35.30;22.27;;;52.00;2022.40;;;;;;4745647;30;20052;-74
2021/03/21 07:24:18;;;;;;;33.70;23.15;;;52.10;1996.80;;;;;;4748216;30;20039;-74
2021/03/21 07:27:02;;;;;;;33.40;21.83;;;76.80;1971.20;;;;;;4743187;30;20036;-74
2021/03/21 07:29:39;;;;;;;37.67;24.42;;;76.80;1996.80;;;;;;4748725;30;20158;-74
2021/03/21 07:32:36;;;;;;;36.45;22.35;;;77.00;1996.80;;;;;;4743730;30;20066;-74
2021/03/21 07:35:36;;;;;;;34.88;22.27;;;77.10;1945.60;;;;;;4748318;30;20127;-74
2021/03/21 07:38:19;;;;;;;30.67;20.05;;;77.30;1920.00;;;;;;4814338;29;20526;-74
2021/03/21 07:40:57;;;;;;;36.10;21.83;;;77.30;1920.00;;;;;;4819865;29;20412;-74
2021/03/21 07:43:23;;;;;;;32.95;22.15;;;77.30;1920.00;;;;;;4838213;29;20491;-74
2021/03/21 07:46:13;;;;;;;34.80;21.05;;;77.40;1920.00;;;;;;4820736;29;20022;-76
2021/03/21 07:48:41;;;;;;;34.88;22.85;;;77.50;1920.00;;;;;;4833878;29;20022;-74
2021/03/21 07:51:44;;;;;;;33.22;21.90;;;77.30;1894.40;;;;;;4837543;29;20034;-74
2021/03/21 07:54:31;;;;;;;35.03;22.60;;;77.50;1894.40;;;;;;4821146;29;20492;-74
2021/03/21 07:57:22;;;;;;;37.90;22.33;;;77.50;1894.40;;;;;;4838340;29;20034;-74
2021/03/21 07:59:49;;;;;;;35.20;21.42;;;77.50;1920.00;;;;;;4836747;29;20026;-74
2021/03/21 08:02:24;;;;;;;37.33;22.75;;;77.50;1920.00;;;;;;4834678;29;20094;-74
2021/03/21 08:04:54;;;;;;;34.67;21.67;;;77.50;1920.00;;;;;;4820004;29;20026;-74
2021/03/21 08:07:35;;;;;;;37.08;22.35;;;77.40;1920.00;;;;;;4837848;29;20054;-74
2021/03/21 08:10:22;;;;;;;33.28;22.08;;;77.40;1920.00;;;;;;4836064;29;20022;-74
2021/03/21 08:13:10;;;;;;;34.25;22.17;;;77.30;1945.60;;;;;;4844412;29;20046;-74
2021/03/21 08:15:38;;;;;;;36.47;24.80;;;77.40;1945.60;;;;;;4831141;29;20101;-73
2021/03/21 08:18:09;;;;;;;38.47;23.35;;;77.50;1945.60;;;;;;4832122;29;20104;-73
2021/03/21 08:20:40;;;;;;;35.70;21.30;;;77.40;1920.00;;;;;;4832454;29;20034;-73
2021/03/21 08:23:20;;;;;;;30.90;21.25;;;77.40;1945.60;;;;;;4843422;29;20101;-73
2021/03/21 08:25:46;;;;;;;39.55;22.30;;;77.40;1945.60;;;;;;4834780;29;20047;-73
2021/03/21 08:28:16;;;;;;;32.40;22.13;;;77.40;1945.60;;;;;;4837382;29;20117;-73
2021/03/21 08:30:56;;;;;;;34.28;21.45;;;77.50;1945.60;;;;;;4819930;29;20030;-73
2021/03/21 08:33:40;;;;;;;38.50;22.52;;;77.50;1945.60;;;;;;4834275;29;20109;-73
2021/03/21 08:36:06;;;;;;;32.83;20.17;;;102.40;1920.00;;;;;;4832962;29;20096;-73
2021/03/21 08:38:33;;;;;;;34.67;22.75;;;102.40;1920.00;;;;;;4834165;29;20042;-74
2021/03/21 08:41:01;;;;;;;34.97;23.15;;;102.40;1894.40;;;;;;4813812;29;20026;-74
2021/03/21 08:43:30;;;;;;;36.47;23.35;;;102.40;1920.00;;;;;;4836171;29;20062;-73
2021/03/21 08:45:55;;;;;;;32.90;23.00;;;102.50;1920.00;;;;;;4836717;29;20026;-76
2021/03/21 08:48:25;;;;;;;34.38;22.77;;;102.60;1894.40;;;;;;4817065;29;20392;-75
2021/03/21 08:50:57;;;;;;;35.88;22.95;;;102.70;1920.00;;;;;;4816160;29;20040;-76
2021/03/21 08:53:37;;;;;;;38.20;23.98;;;102.70;1920.00;;;;;;4818197;29;20042;-76
2021/03/21 08:56:18;;;;;;;36.80;23.13;;;102.90;1894.40;;;;;;4817130;29;20508;-75
2021/03/21 08:58:46;;;;;;;35.13;24.38;;;102.90;1868.80;;;;;;4839261;29;20102;-75
2021/03/21 09:01:24;;;;;;;36.13;22.60;;;103.00;1868.80;;;;;;4819216;29;20225;-75
2021/03/21 09:03:51;;;;;;;36.47;23.00;;;102.90;1894.40;;;;;;4819581;29;20029;-75
2021/03/21 09:06:36;;;;;;;37.08;23.75;;;102.90;1868.80;;;;;;4837284;29;20029;-75
2021/03/21 09:09:21;;;;;;;44.92;26.00;;;102.90;1894.40;;;;;;4817206;29;20384;-76
2021/03/21 09:11:56;;;;;;;35.90;23.77;;;102.90;1920.00;;;;;;4817185;29;20077;-75
2021/03/21 09:14:24;;;;;;;37.28;25.00;;;102.80;1894.40;;;;;;4830205;29;20078;-75
2021/03/21 09:16:56;;;;;;;34.92;24.73;;;102.70;1920.00;;;;;;4839316;29;20058;-75
2021/03/21 09:19:34;;;;;;;38.45;24.40;;;102.70;1945.60;;;;;;4829462;29;20026;-74
2021/03/21 09:22:10;;;;;;;36.55;25.02;;;102.70;1920.00;;;;;;4838577;29;20018;-74
2021/03/21 09:24:40;;;;;;;38.55;25.08;;;102.70;1945.60;;;;;;4843004;29;20183;-75
2021/03/21 09:27:15;;;;;;;34.35;24.05;;;102.60;1971.20;;;;;;4820650;29;20063;-75
2021/03/21 09:29:42;;;;;;;41.70;24.77;;;102.60;1945.60;;;;;;4814791;29;20052;-75
2021/03/21 09:32:22;;;;;;;40.67;24.85;;;102.60;1971.20;;;;;;4836339;29;20033;-76
2021/03/21 09:34:57;;;;;;;33.20;21.58;;;102.60;1971.20;;;;;;4827856;29;20027;-75
2021/03/21 09:37:26;;;;;;;35.03;23.08;;;102.60;1971.20;;;;;;4816743;29;20039;-75
2021/03/21 09:40:21;;;;;;;38.10;23.33;;;102.50;1971.20;;;;;;4834873;29;20026;-75
2021/03/21 09:42:48;;;;;;;40.45;23.67;;;102.50;1996.80;;;;;;4733747;30;20151;-75
2021/03/21 09:45:14;;;;;;;40.60;25.98;;;102.50;1971.20;;;;;;4734000;30;20063;-75
2021/03/21 09:47:56;;;;;;;37.17;23.60;;;102.60;1971.20;;;;;;4733344;30;20040;-74
2021/03/21 09:50:49;;;;;;;36.78;23.45;;;102.60;1971.20;;;;;;4746388;30;20573;-75
2021/03/21 09:53:33;;;;;;;36.20;23.80;;;102.60;1971.20;;;;;;4733894;30;20071;-75
2021/03/21 09:56:05;;;;;;;35.72;23.33;;;102.70;1945.60;;;;;;4748635;30;20032;-75
2021/03/21 09:58:55;;;;;;;36.88;23.85;;;102.70;1945.60;;;;;;4734190;30;20127;-75
2021/03/21 10:01:45;;;;;;;32.80;22.42;;;102.80;1945.60;;;;;;4744946;30;20040;-75
2021/03/21 10:04:48;;;;;;;40.05;26.67;;;102.90;1971.20;;;;;;4751746;30;20078;-75
2021/03/21 10:08:04;;;;;;;40.38;24.38;;;102.80;1945.60;;;;;;4716620;30;20045;-75
2021/03/21 10:10:38;;;;;;;35.90;24.00;;;102.80;1945.60;;;;;;4699171;30;20519;-76
2021/03/21 10:13:04;;;;;;;31.92;22.92;;;102.80;1945.60;;;;;;4697895;30;20069;-75
2021/03/21 10:15:30;;;;;;;35.53;23.52;;;102.80;1945.60;;;;;;4684996;30;20164;-74
2021/03/21 10:18:02;;;;;;;40.55;23.35;;;102.90;1971.20;;;;;;4698227;30;20042;-73
2021/03/21 10:20:52;;;;;;;35.10;23.15;;;102.90;1971.20;;;;;;4723188;30;20044;-74
2021/03/21 10:23:17;;;;;;;36.75;24.33;;;102.90;1945.60;;;;;;4751251;30;20498;-75
2021/03/21 10:25:43;;;;;;;34.75;21.83;;;103.00;1945.60;;;;;;4751001;30;20047;-74
2021/03/21 10:28:33;;;;;;;35.80;24.15;;;103.10;1945.60;;;;;;4751605;30;20445;-74
2021/03/21 10:31:23;;;;;;;33.15;21.60;;;128.00;1945.60;;;;;;4751663;30;20044;-74
2021/03/21 10:33:51;;;;;;;39.05;25.92;;;128.20;1920.00;;;;;;4750816;30;20043;-74
2021/03/21 10:36:41;;;;;;;35.47;23.48;;;128.20;1920.00;;;;;;4751250;30;20127;-74
2021/03/21 10:39:11;;;;;;;39.92;25.05;;;128.20;1894.40;;;;;;4750782;30;20070;-74
2021/03/21 10:41:53;;;;;;;37.60;24.10;;;128.20;1920.00;;;;;;4750169;30;20072;-74
2021/03/21 10:44:43;;;;;;;34.25;23.45;;;128.20;1920.00;;;;;;4774464;29;20174;-74
2021/03/21 10:47:11;;;;;;;36.92;24.13;;;128.20;1920.00;;;;;;4827949;29;20048;-74
2021/03/21 10:50:03;;;;;;;38.38;25.80;;;128.30;1920.00;;;;;;4838034;29;20503;-74
2021/03/21 10:52:34;;;;;;;39.65;24.35;;;128.30;1920.00;;;;;;4828171;29;20125;-75
2021/03/21 10:55:12;;;;;;;31.13;20.33;;;128.40;1894.40;;;;;;4836622;29;20026;-75
2021/03/21 10:57:56;;;;;;;32.25;21.40;;;128.40;1894.40;;;;;;4815105;29;20075;-75
2021/03/21 11:00:30;;;;;;;33.65;22.10;;;128.50;1920.00;;;;;;4838628;29;20208;-76
2021/03/21 11:03:01;;;;;;;26.65;19.50;;;128.40;1894.40;;;;;;4823626;29;20426;-75
2021/03/21 11:05:36;;;;;;;32.75;21.00;;;128.30;1894.40;;;;;;4824955;29;20086;-75
2021/03/21 11:08:07;;;;;;;32.55;23.42;;;128.30;1920.00;;;;;;4818657;29;20392;-76
2021/03/21 11:10:38;;;;;;;30.60;22.08;;;128.20;1945.60;;;;;;4817818;29;20121;-76
2021/03/21 11:13:04;;;;;;;35.28;23.10;;;128.30;1945.60;;;;;;4815058;29;20062;-75
2021/03/21 11:15:39;;;;;;;33.13;21.42;;;128.30;2022.40;;;;;;4820695;29;20399;-76
2021/03/21 11:18:21;;;;;;;33.65;22.15;;;128.30;1945.60;;;;;;4820907;29;20030;-75
2021/03/21 11:20:48;;;;;;;41.15;23.50;;;128.30;1945.60;;;;;;4817431;29;20440;-75
2021/03/21 11:23:20;;;;;;;30.98;21.85;;;128.30;1996.80;;;;;;4832999;29;20164;-75
2021/03/21 11:25:47;;;;;;;28.45;19.80;;;128.30;1945.60;;;;;;4836729;29;20029;-75
2021/03/21 11:28:36;;;;;;;30.13;20.42;;;128.20;1920.00;;;;;;4838274;29;20049;-75
2021/03/21 11:31:05;;;;;;;31.42;21.48;;;128.30;1945.60;;;;;;4833085;29;20026;-76
2021/03/21 11:33:33;;;;;;;34.13;22.65;;;128.40;1945.60;;;;;;4818081;29;20049;-75
2021/03/21 11:36:27;;;;;;;33.78;22.23;;;128.50;1971.20;;;;;;4815759;29;20404;-75
2021/03/21 11:38:54;;;;;;;30.83;21.83;;;128.70;1945.60;;;;;;4828487;29;20114;-74
2021/03/21 11:41:29;;;;;;;34.05;22.15;;;128.80;1920.00;;;;;;4829387;29;20039;-75
2021/03/21 11:44:31;;;;;;;29.75;20.08;;;128.90;1920.00;;;;;;4819342;29;20026;-75
2021/03/21 11:47:12;;;;;;;33.08;22.38;;;153.70;1894.40;;;;;;4840043;29;20029;-74
2021/03/21 11:49:38;;;;;;;30.25;21.60;;;153.80;1894.40;;;;;;4836865;29;20014;-74
2021/03/21 11:52:05;;;;;;;30.98;20.55;;;153.90;1894.40;;;;;;4823677;29;20046;-74
2021/03/21 11:54:34;;;;;;;30.05;20.73;;;154.00;1894.40;;;;;;4817924;29;20514;-74
2021/03/21 11:57:06;;;;;;;29.05;20.90;;;154.00;1843.20;;;;;;4832777;29;20479;-74
2021/03/21 11:59:43;;;;;;;31.25;20.65;;;153.90;1868.80;;;;;;4831600;29;20086;-74
2021/03/21 12:02:33;;;;;;;32.05;19.45;;;153.90;1817.60;;;;;;4817032;29;20026;-73
2021/03/21 12:05:06;;;;;;;29.50;19.42;;;154.00;1817.60;;;;;;4834459;29;20029;-73
2021/03/21 12:07:32;;;;;;;32.72;21.90;;;154.10;1817.60;;;;;;4816226;29;20033;-74
2021/03/21 12:09:59;;;;;;;30.48;20.35;;;154.10;1817.60;;;;;;4832726;29;20091;-73
2021/03/21 12:12:41;;;;;;;27.25;19.45;;;154.30;1766.40;;;;;;4819583;29;20124;-73
2021/03/21 12:15:16;;;;;;;29.92;19.60;;;154.30;1740.80;;;;;;4815195;29;20531;-74
2021/03/21 12:17:43;;;;;;;31.98;19.52;;;154.50;1740.80;;;;;;4836640;29;20091;-74
2021/03/21 12:20:30;;;;;;;25.77;17.33;;;179.30;1740.80;;;;;;4833754;29;20038;-74
2021/03/21 12:22:56;;;;;;;24.67;17.40;;;154.50;1664.00;;;;;;4833883;29;20425;-74
2021/03/21 12:25:22;;;;;;;26.50;16.85;;;154.50;1689.60;;;;;;4832944;29;20076;-74
2021/03/21 12:27:49;;;;;;;25.15;17.65;;;179.20;1689.60;;;;;;4831976;29;20030;-74
2021/03/21 12:30:16;;;;;;;28.13;19.08;;;179.30;1689.60;;;;;;4839011;29;20033;-72
2021/03/21 12:32:44;;;;;;;25.70;18.42;;;179.30;1689.60;;;;;;4817191;29;20090;-75
2021/03/21 12:35:22;;;;;;;28.08;19.35;;;179.40;1664.00;;;;;;4843080;29;20033;-74
2021/03/21 12:37:56;;;;;;;23.80;17.13;;;179.50;1612.80;;;;;;4825687;29;20037;-75
2021/03/21 12:40:36;;;;;;;28.10;18.80;;;179.60;1612.80;;;;;;4846137;29;20026;-75
2021/03/21 12:43:32;;;;;;;35.22;21.63;;;179.60;1587.20;;;;;;4828112;29;20029;-75
2021/03/21 12:46:11;;;;;;;22.40;15.32;;;179.70;1587.20;;;;;;4767306;29;20458;-75
2021/03/21 12:48:50;;;;;;;26.55;17.20;;;179.70;1587.20;;;;;;4738483;30;20549;-74
2021/03/21 12:51:48;;;;;;;22.70;17.92;;;179.70;1587.20;;;;;;4749488;30;20520;-74
2021/03/21 12:54:13;;;;;;;24.35;17.75;;;179.80;1587.20;;;;;;4706348;30;20045;-74
2021/03/21 12:56:39;;;;;;;27.98;18.95;;;179.70;1612.80;;;;;;4711725;30;20495;-74